createdAt,value
2022-07-29T00:01:40.710Z,19.83
2022-07-29T00:03:40.491Z,19.88
2022-07-29T00:05:40.256Z,19.89
2022-07-29T00:07:38.502Z,19.86
2022-07-29T00:09:50.876Z,19.90
2022-07-29T00:11:51.246Z,19.89
2022-07-29T00:13:51.137Z,19.74
2022-07-29T00:15:49.501Z,19.61
2022-07-29T00:17:47.709Z,19.57
2022-07-29T00:19:47.423Z,19.43
2022-07-29T00:21:45.780Z,19.37
2022-07-29T00:23:44.097Z,19.44
2022-07-29T00:25:42.445Z,19.43
2022-07-29T00:27:41.229Z,19.40
2022-07-29T00:29:39.348Z,19.57
2022-07-29T00:31:37.726Z,19.45
2022-07-29T00:33:36.129Z,19.39
2022-07-29T00:35:47.255Z,19.27
2022-07-29T00:37:45.720Z,19.11
2022-07-29T00:39:44.096Z,19.03
2022-07-29T00:41:42.346Z,18.92
2022-07-29T00:43:40.702Z,18.93
2022-07-29T00:45:38.979Z,18.63
2022-07-29T00:47:37.326Z,18.57
2022-07-29T00:49:36.715Z,18.45
2022-07-29T00:51:37.644Z,18.36
2022-07-29T00:53:37.801Z,18.26
2022-07-29T00:55:36.526Z,18.21
2022-07-29T00:57:35.143Z,18.22
2022-07-29T00:59:35.113Z,18.08
2022-07-29T01:01:33.733Z,18.00
2022-07-29T01:03:32.042Z,18.02
2022-07-29T01:05:50.751Z,18.18
2022-07-29T01:07:53.383Z,17.99
2022-07-29T01:09:52.579Z,17.99
2022-07-29T01:11:51.540Z,18.00
2022-07-29T01:13:50.434Z,17.97
2022-07-29T01:15:56.903Z,18.05
2022-07-29T01:18:03.931Z,18.10
2022-07-29T01:20:12.852Z,18.02
2022-07-29T01:22:30.391Z,17.92
2022-07-29T01:25:04.487Z,17.90
2022-07-29T01:27:11.865Z,17.92
2022-07-29T01:29:20.833Z,17.92
2022-07-29T01:31:27.439Z,17.93
2022-07-29T01:33:46.528Z,17.92
2022-07-29T01:35:46.422Z,18.06
2022-07-29T01:37:49.083Z,18.14
2022-07-29T01:39:49.870Z,18.10
2022-07-29T01:41:55.432Z,18.12
2022-07-29T01:43:58.866Z,18.21
2022-07-29T01:46:02.699Z,18.25
2022-07-29T01:48:05.699Z,18.26
2022-07-29T01:50:09.682Z,18.23
2022-07-29T01:52:09.970Z,18.19
2022-07-29T01:54:15.311Z,18.22
2022-07-29T01:56:17.712Z,18.19
2022-07-29T01:58:19.940Z,18.23
2022-07-29T02:00:19.786Z,18.26
2022-07-29T02:02:21.187Z,18.34
2022-07-29T02:04:29.337Z,18.34
2022-07-29T02:06:30.431Z,18.28
2022-07-29T02:08:30.453Z,18.19
2022-07-29T02:10:32.227Z,18.19
2022-07-29T02:12:33.226Z,18.16
2022-07-29T02:14:36.372Z,18.24
2022-07-29T02:16:37.474Z,18.09
2022-07-29T02:18:39.445Z,18.00
2022-07-29T02:20:41.116Z,18.03
2022-07-29T02:22:41.229Z,18.04
2022-07-29T02:24:41.460Z,17.94
2022-07-29T02:26:42.542Z,17.92
2022-07-29T02:28:42.413Z,17.93
2022-07-29T02:30:44.100Z,17.98
2022-07-29T02:32:43.827Z,18.21
2022-07-29T02:34:45.142Z,18.30
2022-07-29T02:36:46.404Z,18.33
2022-07-29T02:38:54.438Z,18.43
2022-07-29T02:40:54.652Z,18.34
2022-07-29T02:42:53.051Z,18.28
2022-07-29T02:44:52.612Z,18.43
2022-07-29T02:46:55.681Z,18.45
2022-07-29T02:49:00.441Z,18.47
2022-07-29T02:51:07.308Z,18.64
2022-07-29T02:53:13.833Z,18.71
2022-07-29T02:55:19.148Z,18.69
2022-07-29T02:57:22.528Z,18.69
2022-07-29T02:59:25.669Z,18.70
2022-07-29T03:01:26.353Z,18.62
2022-07-29T03:03:27.443Z,18.64
2022-07-29T03:05:26.499Z,18.63
2022-07-29T03:07:26.850Z,18.75
2022-07-29T03:09:26.336Z,18.71
2022-07-29T03:11:41.482Z,18.69
2022-07-29T03:13:43.934Z,18.48
2022-07-29T03:15:44.743Z,18.43
2022-07-29T03:17:43.996Z,18.46
2022-07-29T03:19:42.959Z,18.57
2022-07-29T03:21:41.545Z,18.54
2022-07-29T03:23:46.155Z,18.49
2022-07-29T03:25:45.544Z,18.38
2022-07-29T03:27:44.319Z,18.28
2022-07-29T03:29:43.718Z,18.21
2022-07-29T03:31:48.427Z,18.16
2022-07-29T03:33:46.716Z,18.10
2022-07-29T03:35:44.921Z,18.33
2022-07-29T03:37:43.246Z,18.40
2022-07-29T03:39:43.727Z,18.15
2022-07-29T03:41:46.417Z,18.17
2022-07-29T03:43:49.474Z,18.29
2022-07-29T03:45:51.810Z,18.48
2022-07-29T03:47:59.901Z,18.54
2022-07-29T03:50:02.367Z,18.57
2022-07-29T03:52:00.829Z,18.58
2022-07-29T03:53:59.555Z,18.45
2022-07-29T03:56:02.112Z,18.50
2022-07-29T03:58:03.218Z,18.77
2022-07-29T04:00:03.855Z,19.40
2022-07-29T04:02:04.768Z,20.23
2022-07-29T04:04:03.787Z,20.93
2022-07-29T04:06:03.545Z,21.19
2022-07-29T04:08:01.950Z,21.65
2022-07-29T04:10:00.254Z,21.91
2022-07-29T04:12:03.050Z,22.17
2022-07-29T04:14:02.014Z,21.76
2022-07-29T04:16:00.792Z,22.00
2022-07-29T04:17:59.230Z,22.01
2022-07-29T04:19:57.482Z,22.35
2022-07-29T04:21:55.822Z,23.55
2022-07-29T04:23:54.132Z,23.43
2022-07-29T04:25:52.446Z,23.82
2022-07-29T04:28:04.093Z,23.59
2022-07-29T04:30:02.562Z,23.99
2022-07-29T04:32:00.756Z,24.04
2022-07-29T04:33:58.986Z,24.54
2022-07-29T04:35:57.412Z,24.28
2022-07-29T04:37:55.581Z,25.04
2022-07-29T04:39:53.926Z,25.33
2022-07-29T04:41:54.910Z,25.58
2022-07-29T04:43:56.506Z,25.13
2022-07-29T04:45:56.116Z,24.81
2022-07-29T04:47:54.558Z,23.93
2022-07-29T04:49:52.877Z,23.69
2022-07-29T04:51:51.290Z,23.72
2022-07-29T04:53:49.556Z,23.37
2022-07-29T04:55:47.980Z,23.00
2022-07-29T04:57:46.248Z,22.97
2022-07-29T04:59:45.933Z,22.82
2022-07-29T05:01:44.418Z,23.26
2022-07-29T05:03:42.825Z,23.40
2022-07-29T05:05:41.883Z,23.46
2022-07-29T05:07:40.181Z,23.56
2022-07-29T05:09:38.346Z,23.72
2022-07-29T05:11:36.658Z,23.64
2022-07-29T05:13:45.366Z,24.02
2022-07-29T05:15:46.146Z,24.17
2022-07-29T05:17:44.384Z,24.23
2022-07-29T05:19:42.641Z,24.20
2022-07-29T05:21:40.853Z,24.18
2022-07-29T05:23:39.215Z,24.05
2022-07-29T05:25:43.116Z,23.94
2022-07-29T05:27:42.827Z,23.72
2022-07-29T05:29:43.243Z,23.43
2022-07-29T05:31:44.758Z,23.30
2022-07-29T05:33:43.217Z,23.58
2022-07-29T05:35:41.612Z,23.55
2022-07-29T05:37:40.152Z,23.74
2022-07-29T05:39:48.826Z,23.71
2022-07-29T05:41:52.018Z,23.51
2022-07-29T05:43:50.560Z,23.61
2022-07-29T05:45:49.664Z,23.97
2022-07-29T05:47:49.941Z,24.32
2022-07-29T05:49:48.317Z,24.33
2022-07-29T05:51:48.514Z,24.74
2022-07-29T05:53:46.947Z,24.85
2022-07-29T05:55:45.422Z,24.86
2022-07-29T05:57:44.458Z,25.02
2022-07-29T05:59:42.741Z,24.77
2022-07-29T06:01:41.070Z,24.54
2022-07-29T06:03:42.254Z,24.42
2022-07-29T06:05:40.446Z,25.10
2022-07-29T06:07:38.863Z,25.43
2022-07-29T06:09:48.433Z,25.69
2022-07-29T06:11:46.670Z,25.79
2022-07-29T06:13:44.942Z,25.77
2022-07-29T06:15:43.435Z,25.36
2022-07-29T06:18:00.095Z,25.07
2022-07-29T06:20:00.939Z,24.92
2022-07-29T06:21:59.330Z,24.68
2022-07-29T06:23:57.790Z,24.66
2022-07-29T06:25:56.013Z,24.63
2022-07-29T06:27:54.543Z,24.72
2022-07-29T06:29:52.930Z,24.67
2022-07-29T06:31:51.203Z,24.81
2022-07-29T06:33:49.441Z,24.79
2022-07-29T06:35:53.180Z,24.94
2022-07-29T06:37:52.547Z,24.76
2022-07-29T06:40:14.231Z,24.82
2022-07-29T06:42:12.458Z,25.21
2022-07-29T06:44:10.931Z,25.39
2022-07-29T06:46:12.193Z,25.46
2022-07-29T06:48:10.685Z,25.46
2022-07-29T06:50:12.764Z,25.34
2022-07-29T06:52:12.519Z,25.69
2022-07-29T06:54:10.817Z,25.70
2022-07-29T06:56:10.292Z,25.57
2022-07-29T06:58:08.801Z,25.53
2022-07-29T07:00:08.949Z,25.77
2022-07-29T07:02:07.183Z,26.10
2022-07-29T07:04:05.754Z,26.40
2022-07-29T07:06:04.488Z,26.22
2022-07-29T07:08:04.540Z,25.88
2022-07-29T07:10:03.062Z,26.04
2022-07-29T07:12:01.257Z,26.51
2022-07-29T07:14:03.446Z,26.63
2022-07-29T07:16:03.083Z,26.68
2022-07-29T07:18:01.529Z,26.42
2022-07-29T07:19:59.792Z,26.63
2022-07-29T07:21:58.080Z,26.58
2022-07-29T07:23:57.797Z,26.88
2022-07-29T07:25:56.035Z,26.94
2022-07-29T07:27:54.275Z,27.08
2022-07-29T07:29:52.526Z,27.22
2022-07-29T07:31:51.080Z,27.19
2022-07-29T07:33:49.421Z,27.56
2022-07-29T07:35:47.725Z,27.94
2022-07-29T07:37:45.958Z,27.93
2022-07-29T07:39:45.734Z,27.95
2022-07-29T07:41:43.918Z,28.01
2022-07-29T07:43:42.249Z,28.44
2022-07-29T07:45:41.190Z,28.30
2022-07-29T07:47:40.234Z,28.60
2022-07-29T07:49:38.784Z,28.67
2022-07-29T07:51:40.028Z,28.46
2022-07-29T07:53:38.320Z,28.08
2022-07-29T07:58:00.520Z,28.21
2022-07-29T07:59:58.783Z,28.76
2022-07-29T08:01:57.131Z,28.72
2022-07-29T08:03:55.591Z,29.13
2022-07-29T08:05:55.247Z,28.95
2022-07-29T08:07:53.657Z,29.49
2022-07-29T08:09:51.904Z,29.92
2022-07-29T08:11:52.356Z,30.21
2022-07-29T08:13:50.752Z,30.14
2022-07-29T08:15:49.121Z,29.93
2022-07-29T08:17:47.324Z,29.83
2022-07-29T08:19:45.497Z,30.95
2022-07-29T08:21:43.967Z,31.29
2022-07-29T08:23:50.522Z,32.10
2022-07-29T08:25:51.685Z,32.64
2022-07-29T08:27:51.415Z,32.88
2022-07-29T08:29:49.989Z,32.89
2022-07-29T08:31:48.439Z,33.04
2022-07-29T08:33:46.974Z,32.40
2022-07-29T08:35:45.123Z,33.64
2022-07-29T08:37:43.429Z,33.64
2022-07-29T08:39:42.223Z,32.45
2022-07-29T08:41:40.595Z,33.11
2022-07-29T08:43:56.353Z,33.14
2022-07-29T08:45:54.673Z,33.35
2022-07-29T08:47:53.110Z,32.96
2022-07-29T08:49:51.435Z,33.60
2022-07-29T08:51:49.942Z,33.76
2022-07-29T08:53:50.322Z,33.98
2022-07-29T08:55:51.879Z,34.06
2022-07-29T08:57:50.919Z,35.32
2022-07-29T08:59:55.987Z,36.38
2022-07-29T09:01:55.984Z,37.09
2022-07-29T09:03:58.022Z,36.40
2022-07-29T09:05:56.804Z,36.75
2022-07-29T09:07:55.644Z,37.33
2022-07-29T09:09:54.114Z,35.88
2022-07-29T09:11:55.219Z,36.62
2022-07-29T09:13:53.638Z,36.23
2022-07-29T09:15:54.113Z,35.68
2022-07-29T09:17:52.777Z,35.83
2022-07-29T09:19:53.470Z,36.96
2022-07-29T09:22:00.153Z,38.30
2022-07-29T09:24:03.272Z,38.27
2022-07-29T09:26:07.855Z,38.28
2022-07-29T09:28:10.032Z,38.80
2022-07-29T09:30:12.172Z,37.77
2022-07-29T09:32:12.642Z,37.23
2022-07-29T09:34:11.878Z,36.86
2022-07-29T09:36:12.538Z,37.35
2022-07-29T09:38:14.050Z,36.52
2022-07-29T09:40:17.304Z,36.95
2022-07-29T09:42:16.697Z,37.74
2022-07-29T09:44:15.922Z,38.02
2022-07-29T09:46:15.203Z,37.25
2022-07-29T09:48:19.088Z,36.19
2022-07-29T09:50:20.681Z,35.96
2022-07-29T09:52:19.064Z,35.95
2022-07-29T09:54:26.868Z,35.74
2022-07-29T09:56:42.376Z,36.92
2022-07-29T09:58:40.829Z,35.11
2022-07-29T10:00:44.608Z,35.69
2022-07-29T10:02:45.610Z,34.84
2022-07-29T10:04:45.369Z,35.31
2022-07-29T10:07:04.426Z,34.87
2022-07-29T10:09:10.524Z,35.52
2022-07-29T10:11:13.924Z,35.17
2022-07-29T10:13:16.058Z,35.84
2022-07-29T10:15:15.020Z,36.30
2022-07-29T10:17:13.580Z,35.42
2022-07-29T10:19:12.327Z,34.97
2022-07-29T10:21:22.547Z,35.66
2022-07-29T10:23:46.944Z,35.36
2022-07-29T10:25:47.870Z,34.98
2022-07-29T10:27:47.587Z,35.00
2022-07-29T10:29:46.228Z,34.65
2022-07-29T10:31:53.189Z,35.68
2022-07-29T10:34:04.054Z,36.25
2022-07-29T10:36:21.977Z,36.41
2022-07-29T10:38:36.860Z,36.97
2022-07-29T10:41:06.787Z,36.91
2022-07-29T10:43:24.049Z,36.29
2022-07-29T10:45:25.041Z,35.03
2022-07-29T10:47:27.485Z,34.98
2022-07-29T10:52:05.887Z,35.25
2022-07-29T10:54:06.788Z,34.67
2022-07-29T10:56:06.384Z,34.51
2022-07-29T10:58:15.855Z,34.22
2022-07-29T11:00:34.059Z,33.55
2022-07-29T11:02:53.026Z,32.59
2022-07-29T11:05:04.493Z,31.90
2022-07-29T11:07:10.406Z,31.34
2022-07-29T11:09:20.359Z,31.28
2022-07-29T11:11:35.011Z,31.35
2022-07-29T11:13:53.257Z,31.14
2022-07-29T11:15:55.706Z,31.05
2022-07-29T11:18:07.829Z,30.93
2022-07-29T11:20:37.833Z,31.23
2022-07-29T11:22:45.860Z,31.27
2022-07-29T11:24:49.307Z,30.86
2022-07-29T11:27:08.946Z,30.99
2022-07-29T11:29:19.098Z,31.14
2022-07-29T11:31:19.112Z,31.11
2022-07-29T11:33:54.526Z,31.19
2022-07-29T11:36:16.921Z,31.08
2022-07-29T11:38:31.626Z,31.00
2022-07-29T11:40:30.565Z,30.76
2022-07-29T11:42:45.075Z,30.91
2022-07-29T11:44:57.896Z,31.12
2022-07-29T11:46:56.901Z,31.18
2022-07-29T11:48:56.946Z,31.08
2022-07-29T11:50:58.292Z,31.19
2022-07-29T11:52:57.480Z,31.38
2022-07-29T11:55:00.847Z,31.27
2022-07-29T11:57:09.625Z,31.32
2022-07-29T11:59:11.127Z,31.35
2022-07-29T12:01:16.201Z,31.26
2022-07-29T12:05:48.196Z,31.06
2022-07-29T12:07:03.883Z,31.32
2022-07-29T12:07:47.240Z,31.07
2022-07-29T12:09:52.942Z,31.15
2022-07-29T12:12:04.898Z,31.43
2022-07-29T12:14:04.023Z,31.86
2022-07-29T12:16:02.577Z,31.87
2022-07-29T12:18:03.909Z,31.42
2022-07-29T12:20:05.104Z,31.20
2022-07-29T12:22:04.248Z,31.31
2022-07-29T12:24:08.802Z,31.66
2022-07-29T12:26:10.571Z,31.68
2022-07-29T12:28:14.114Z,31.29
2022-07-29T12:30:17.409Z,31.17
2022-07-29T12:32:19.824Z,31.21
2022-07-29T12:34:20.977Z,31.55
2022-07-29T12:36:19.289Z,31.41
2022-07-29T12:38:18.490Z,31.35
2022-07-29T12:40:18.548Z,31.65
2022-07-29T12:42:19.190Z,31.54
2022-07-29T12:44:18.961Z,31.65
2022-07-29T12:46:17.494Z,31.72
2022-07-29T12:48:16.825Z,31.47
2022-07-29T12:50:22.119Z,31.04
2022-07-29T12:52:29.996Z,31.02
2022-07-29T12:54:28.285Z,30.79
2022-07-29T12:56:42.307Z,30.83
2022-07-29T12:58:44.470Z,30.77
2022-07-29T13:00:45.057Z,30.80
2022-07-29T13:02:46.420Z,30.82
2022-07-29T13:04:44.863Z,30.76
2022-07-29T13:06:45.925Z,30.85
2022-07-29T13:09:01.600Z,30.94
2022-07-29T13:10:59.918Z,31.22
2022-07-29T13:13:07.597Z,31.31
2022-07-29T13:15:15.506Z,31.42
2022-07-29T13:17:17.725Z,31.47
2022-07-29T13:19:16.177Z,31.45
2022-07-29T13:21:17.723Z,31.45
2022-07-29T13:23:17.971Z,31.32
2022-07-29T13:25:17.075Z,31.19
2022-07-29T13:27:16.189Z,31.39
2022-07-29T13:29:14.564Z,30.93
2022-07-29T13:31:13.276Z,30.43
2022-07-29T13:33:13.123Z,30.22
2022-07-29T13:35:12.730Z,30.20
2022-07-29T13:37:11.118Z,30.34
2022-07-29T13:39:14.543Z,30.46
2022-07-29T13:41:15.093Z,30.67
2022-07-29T13:43:13.787Z,30.82
2022-07-29T13:45:13.166Z,30.63
2022-07-29T13:47:11.569Z,30.51
2022-07-29T13:49:12.412Z,30.35
2022-07-29T13:51:10.833Z,30.42
2022-07-29T13:53:09.139Z,30.33
2022-07-29T13:55:09.385Z,30.39
2022-07-29T13:57:07.895Z,30.31
2022-07-29T13:59:06.032Z,30.27
2022-07-29T14:01:04.644Z,30.43
2022-07-29T14:03:03.131Z,30.58
2022-07-29T14:05:07.997Z,30.60
2022-07-29T14:07:06.920Z,30.71
2022-07-29T14:09:07.208Z,30.73
2022-07-29T14:11:05.749Z,30.70
2022-07-29T14:13:04.134Z,30.82
2022-07-29T14:15:02.603Z,30.76
2022-07-29T14:17:00.993Z,30.65
2022-07-29T14:18:59.379Z,30.55
2022-07-29T14:20:59.219Z,30.44
2022-07-29T14:22:58.092Z,30.39
2022-07-29T14:24:56.384Z,30.39
2022-07-29T14:26:54.734Z,30.18
2022-07-29T14:28:53.218Z,30.18
2022-07-29T14:30:51.423Z,30.09
2022-07-29T14:32:49.640Z,30.08
2022-07-29T14:34:48.012Z,30.18
2022-07-29T14:36:47.766Z,30.09
2022-07-29T14:38:46.046Z,30.03
2022-07-29T14:40:47.679Z,30.05
2022-07-29T14:42:49.218Z,29.95
2022-07-29T14:44:48.864Z,30.07
2022-07-29T14:46:48.585Z,30.27
2022-07-29T14:48:48.005Z,30.35
2022-07-29T14:50:46.334Z,30.58
2022-07-29T14:52:46.114Z,30.72
2022-07-29T14:54:44.513Z,30.85
2022-07-29T14:56:46.956Z,30.87
2022-07-29T14:58:49.179Z,30.87
2022-07-29T15:00:50.228Z,30.82
2022-07-29T15:03:03.988Z,30.79
2022-07-29T15:05:02.197Z,30.51
2022-07-29T15:07:00.517Z,30.48
2022-07-29T15:09:00.372Z,30.46
2022-07-29T15:11:00.414Z,30.48
2022-07-29T15:12:59.199Z,30.49
2022-07-29T15:14:57.565Z,30.38
2022-07-29T15:16:55.994Z,30.32
2022-07-29T15:18:55.555Z,30.33
2022-07-29T15:20:53.967Z,30.29
2022-07-29T15:22:52.427Z,30.33
2022-07-29T15:24:52.224Z,30.30
2022-07-29T15:26:53.042Z,30.35
2022-07-29T15:28:53.270Z,30.29
2022-07-29T15:30:51.646Z,30.35
2022-07-29T15:32:49.886Z,30.38
2022-07-29T15:34:54.491Z,30.39
2022-07-29T15:36:53.724Z,30.32
2022-07-29T15:38:54.596Z,30.30
2022-07-29T15:40:54.415Z,30.44
2022-07-29T15:42:52.774Z,30.46
2022-07-29T15:44:51.230Z,30.43
2022-07-29T15:47:04.363Z,30.34
2022-07-29T15:49:03.627Z,30.27
2022-07-29T15:51:01.959Z,30.29
2022-07-29T15:53:00.589Z,30.26
2022-07-29T15:54:59.159Z,30.21
2022-07-29T15:56:59.305Z,30.13
2022-07-29T15:58:58.739Z,30.03
2022-07-29T16:00:57.181Z,29.98
2022-07-29T16:02:55.434Z,29.92
2022-07-29T16:04:53.785Z,29.90
2022-07-29T16:06:52.275Z,29.85
2022-07-29T16:08:50.717Z,29.79
2022-07-29T16:10:49.029Z,29.75
2022-07-29T16:12:48.737Z,29.71
2022-07-29T16:14:49.593Z,29.64
2022-07-29T16:16:48.352Z,29.64
2022-07-29T16:18:46.645Z,29.58
2022-07-29T16:20:45.107Z,29.50
2022-07-29T16:22:43.592Z,29.45
2022-07-29T16:24:42.216Z,29.37
2022-07-29T16:26:40.435Z,29.35
2022-07-29T16:28:40.085Z,29.31
2022-07-29T16:30:38.580Z,29.27
2022-07-29T16:32:37.105Z,29.25
2022-07-29T16:34:35.694Z,29.23
2022-07-29T16:36:34.043Z,29.23
2022-07-29T16:38:32.243Z,29.08
2022-07-29T16:40:30.572Z,29.06
2022-07-29T16:42:45.346Z,29.02
2022-07-29T16:44:45.555Z,29.00
2022-07-29T16:46:45.602Z,28.96
2022-07-29T16:48:44.001Z,28.89
2022-07-29T16:50:43.788Z,28.91
2022-07-29T16:52:42.174Z,28.88
2022-07-29T16:54:41.143Z,28.83
2022-07-29T16:56:39.471Z,28.84
2022-07-29T16:58:40.468Z,28.85
2022-07-29T17:00:43.243Z,28.86
2022-07-29T17:02:41.719Z,28.83
2022-07-29T17:04:39.992Z,28.79
2022-07-29T17:06:40.473Z,28.78
2022-07-29T17:08:38.755Z,28.79
2022-07-29T17:10:38.090Z,28.81
2022-07-29T17:12:37.816Z,28.77
2022-07-29T17:14:36.368Z,28.79
2022-07-29T17:16:36.317Z,28.70
2022-07-29T17:18:34.673Z,28.67
2022-07-29T17:20:36.573Z,28.63
2022-07-29T17:22:35.217Z,28.60
2022-07-29T17:24:33.725Z,28.58
2022-07-29T17:26:31.957Z,28.56
2022-07-29T17:28:30.357Z,28.52
2022-07-29T17:30:28.602Z,28.45
2022-07-29T17:32:28.319Z,28.38
2022-07-29T17:34:26.589Z,28.35
2022-07-29T17:36:23.877Z,28.29
2022-07-29T17:38:22.289Z,28.23
2022-07-29T17:40:20.502Z,28.20
2022-07-29T17:42:18.843Z,28.15
2022-07-29T17:44:17.122Z,28.08
2022-07-29T17:46:15.697Z,28.04
2022-07-29T17:48:15.456Z,27.98
2022-07-29T17:50:13.813Z,27.95
2022-07-29T17:52:12.263Z,27.91
2022-07-29T17:54:10.511Z,27.87
2022-07-29T17:56:09.336Z,27.79
2022-07-29T17:58:09.215Z,27.75
2022-07-29T18:00:08.945Z,27.67
2022-07-29T18:02:07.395Z,27.61
2022-07-29T18:04:07.171Z,27.55
2022-07-29T18:06:05.843Z,27.53
2022-07-29T18:08:04.197Z,27.54
2022-07-29T18:10:02.658Z,27.45
2022-07-29T18:12:01.238Z,27.36
2022-07-29T18:14:02.373Z,27.27
2022-07-29T18:16:01.103Z,27.19
2022-07-29T18:17:59.562Z,27.18
2022-07-29T18:19:59.322Z,27.20
2022-07-29T18:22:03.190Z,27.17
2022-07-29T18:24:03.540Z,27.18
2022-07-29T18:26:01.759Z,27.11
2022-07-29T18:28:00.877Z,27.07
2022-07-29T18:29:59.452Z,27.07
2022-07-29T18:32:03.301Z,26.98
2022-07-29T18:34:01.612Z,26.99
2022-07-29T18:36:10.699Z,26.95
2022-07-29T18:38:10.205Z,26.95
2022-07-29T18:40:10.722Z,26.87
2022-07-29T18:42:09.320Z,26.79
2022-07-29T18:44:09.618Z,26.79
2022-07-29T18:46:08.334Z,26.77
2022-07-29T18:48:13.004Z,26.72
2022-07-29T18:50:12.766Z,26.62
2022-07-29T18:52:12.593Z,26.63
2022-07-29T18:54:11.190Z,26.54
2022-07-29T18:56:09.618Z,26.53
2022-07-29T18:58:07.907Z,26.52
2022-07-29T19:00:10.004Z,26.47
2022-07-29T19:02:11.457Z,26.43
2022-07-29T19:04:10.199Z,26.41
2022-07-29T19:06:08.604Z,26.38
2022-07-29T19:08:09.217Z,26.34
2022-07-29T19:10:08.388Z,26.37
2022-07-29T19:12:07.497Z,26.28
2022-07-29T19:14:07.054Z,26.25
2022-07-29T19:16:05.815Z,26.19
2022-07-29T19:18:04.648Z,26.17
2022-07-29T19:20:03.609Z,26.21
2022-07-29T19:22:03.271Z,26.12
2022-07-29T19:24:07.855Z,26.10
2022-07-29T19:26:08.573Z,26.10
2022-07-29T19:28:06.940Z,26.12
2022-07-29T19:30:07.775Z,26.15
2022-07-29T19:32:06.512Z,26.07
2022-07-29T19:34:04.911Z,26.06
2022-07-29T19:36:04.017Z,25.99
2022-07-29T19:38:03.430Z,25.96
2022-07-29T19:40:03.058Z,25.88
2022-07-29T19:42:03.526Z,25.88
2022-07-29T19:44:02.007Z,25.84
2022-07-29T19:46:00.301Z,25.79
2022-07-29T19:48:01.512Z,25.74
2022-07-29T19:50:00.781Z,25.76
2022-07-29T19:51:58.931Z,25.81
2022-07-29T19:53:57.346Z,25.79
2022-07-29T19:55:57.024Z,25.80
2022-07-29T19:57:55.495Z,25.80
2022-07-29T19:59:53.862Z,25.72
2022-07-29T20:01:52.490Z,25.72
2022-07-29T20:03:50.740Z,25.65
2022-07-29T20:05:51.110Z,25.69
2022-07-29T20:07:49.523Z,25.68
2022-07-29T20:09:47.807Z,25.69
2022-07-29T20:11:47.517Z,25.68
2022-07-29T20:13:45.915Z,25.65
2022-07-29T20:15:44.191Z,25.57
2022-07-29T20:17:42.585Z,25.53
2022-07-29T20:19:42.764Z,25.49
2022-07-29T20:21:41.092Z,25.48
2022-07-29T20:23:39.494Z,25.40
2022-07-29T20:25:38.352Z,25.37
2022-07-29T20:27:40.406Z,25.33
2022-07-29T20:29:39.463Z,25.28
2022-07-29T20:31:39.044Z,25.31
2022-07-29T20:33:37.350Z,25.31
2022-07-29T20:35:35.606Z,25.32
2022-07-29T20:37:33.929Z,25.30
2022-07-29T20:39:50.956Z,25.26
2022-07-29T20:41:49.556Z,25.25
2022-07-29T20:43:49.841Z,25.16
2022-07-29T20:45:48.746Z,25.08
2022-07-29T20:47:47.150Z,25.09
2022-07-29T20:49:45.440Z,25.12
2022-07-29T20:51:44.227Z,25.07
2022-07-29T20:53:42.894Z,25.08
2022-07-29T20:55:41.494Z,25.06
2022-07-29T20:57:40.132Z,25.09
2022-07-29T20:59:44.067Z,24.98
2022-07-29T21:01:44.101Z,24.95
2022-07-29T21:03:42.479Z,24.92
2022-07-29T21:05:43.959Z,24.94
2022-07-29T21:07:42.632Z,24.88
2022-07-29T21:09:40.918Z,24.78
2022-07-29T21:11:43.559Z,24.81
2022-07-29T21:13:45.661Z,24.76
2022-07-29T21:15:48.457Z,24.75
2022-07-29T21:17:48.044Z,24.75
2022-07-29T21:19:47.208Z,24.71
2022-07-29T21:21:45.569Z,24.69
2022-07-29T21:23:44.730Z,24.62
2022-07-29T21:25:42.957Z,24.60
2022-07-29T21:27:58.362Z,24.59
2022-07-29T21:29:56.808Z,24.62
2022-07-29T21:31:59.325Z,24.53
2022-07-29T21:33:57.659Z,24.51
2022-07-29T21:36:20.326Z,24.50
2022-07-29T21:38:16.373Z,24.44
2022-07-29T21:40:14.779Z,24.38
2022-07-29T21:42:13.151Z,24.27
2022-07-29T21:44:11.541Z,24.28
2022-07-29T21:46:10.288Z,24.35
2022-07-29T21:48:10.022Z,24.27
2022-07-29T21:50:09.146Z,24.24
2022-07-29T21:52:08.226Z,24.24
2022-07-29T21:54:07.422Z,24.19
2022-07-29T21:56:07.593Z,24.17
2022-07-29T21:58:12.404Z,24.18
2022-07-29T22:00:15.725Z,24.15
2022-07-29T22:02:14.096Z,24.17
2022-07-29T22:04:14.201Z,24.15
2022-07-29T22:06:17.932Z,24.08
2022-07-29T22:08:16.730Z,24.08
2022-07-29T22:10:15.031Z,24.09
2022-07-29T22:12:13.384Z,24.03
2022-07-29T22:14:12.461Z,23.98
2022-07-29T22:16:14.788Z,23.96
2022-07-29T22:18:13.156Z,23.95
2022-07-29T22:20:20.988Z,23.95
2022-07-29T22:22:19.412Z,23.92
2022-07-29T22:24:17.645Z,23.89
2022-07-29T22:26:15.960Z,23.87
2022-07-29T22:28:14.173Z,23.92
2022-07-29T22:30:13.326Z,23.90
2022-07-29T22:32:11.783Z,23.90
2022-07-29T22:34:13.315Z,23.88
2022-07-29T22:36:13.008Z,23.85
2022-07-29T22:38:11.312Z,23.82
2022-07-29T22:40:10.151Z,23.84
2022-07-29T22:42:08.665Z,23.86
2022-07-29T22:44:07.050Z,23.86
2022-07-29T22:46:05.451Z,23.85
2022-07-29T22:48:03.760Z,23.82
2022-07-29T22:50:02.093Z,23.89
2022-07-29T22:52:01.874Z,23.85
2022-07-29T22:54:00.433Z,23.87
2022-07-29T22:55:58.777Z,23.80
2022-07-29T22:57:56.999Z,23.82
2022-07-29T22:59:56.384Z,23.79
2022-07-29T23:01:55.220Z,23.79
2022-07-29T23:03:53.867Z,23.78
2022-07-29T23:05:52.510Z,23.77
2022-07-29T23:07:52.141Z,23.85
2022-07-29T23:09:50.719Z,23.86
2022-07-29T23:11:49.101Z,23.78
2022-07-29T23:13:47.358Z,23.74
2022-07-29T23:15:45.735Z,23.76
2022-07-29T23:17:44.209Z,23.77
2022-07-29T23:19:42.684Z,23.81
2022-07-29T23:21:41.079Z,23.80
2022-07-29T23:23:40.728Z,23.69
2022-07-29T23:25:39.074Z,23.66
2022-07-29T23:27:37.501Z,23.65
2022-07-29T23:29:36.929Z,23.67
2022-07-29T23:31:36.113Z,23.63
2022-07-29T23:33:40.412Z,23.59
2022-07-29T23:35:39.273Z,23.58
2022-07-29T23:37:37.640Z,23.55
2022-07-29T23:39:37.458Z,23.55
2022-07-29T23:41:35.784Z,23.54
2022-07-29T23:43:34.037Z,23.57
2022-07-29T23:45:44.693Z,23.58
2022-07-29T23:47:43.496Z,23.61
2022-07-29T23:49:41.946Z,23.59
2022-07-29T23:51:40.121Z,23.56
2022-07-29T23:53:38.813Z,23.49
2022-07-29T23:55:53.698Z,23.47
2022-07-29T23:57:51.968Z,23.48
2022-07-29T23:59:50.207Z,23.38
